createdAt,value
2019-05-29T00:04:38.966Z,17.00
2019-05-29T00:14:44.272Z,17.00
2019-05-29T00:24:49.709Z,17.00
2019-05-29T00:34:55.021Z,17.00
2019-05-29T00:45:00.422Z,17.00
2019-05-29T00:55:06.062Z,16.90
2019-05-29T01:05:12.007Z,16.90
2019-05-29T01:15:17.610Z,16.90
2019-05-29T01:25:23.104Z,16.90
2019-05-29T01:35:28.412Z,16.90
2019-05-29T01:45:33.912Z,16.90
2019-05-29T01:55:39.310Z,16.90
2019-05-29T02:05:44.783Z,16.90
2019-05-29T02:15:50.102Z,16.90
2019-05-29T02:25:57.550Z,16.90
2019-05-29T02:36:02.895Z,16.90
2019-05-29T02:46:08.268Z,16.90
2019-05-29T02:56:13.793Z,16.90
2019-05-29T03:06:19.312Z,16.80
2019-05-29T03:16:26.654Z,16.80
2019-05-29T03:26:33.440Z,16.80
2019-05-29T03:36:46.493Z,16.80
2019-05-29T03:46:46.441Z,16.80
2019-05-29T03:56:52.023Z,16.80
2019-05-29T04:06:57.359Z,16.80
2019-05-29T04:17:02.757Z,16.80
2019-05-29T04:27:08.685Z,16.80
2019-05-29T04:37:14.115Z,16.80
2019-05-29T04:47:19.498Z,16.80
2019-05-29T04:57:24.964Z,16.70
2019-05-29T05:07:31.141Z,16.70
2019-05-29T05:17:37.931Z,16.70
2019-05-29T05:27:43.497Z,16.70
2019-05-29T05:37:48.902Z,16.70
2019-05-29T05:47:57.788Z,16.70
2019-05-29T05:58:01.529Z,16.70
2019-05-29T06:08:06.865Z,16.70
2019-05-29T06:18:21.268Z,16.70
2019-05-29T06:28:19.285Z,16.70
2019-05-29T06:38:25.106Z,16.70
2019-05-29T06:48:42.565Z,16.70
2019-05-29T06:58:38.129Z,16.70
2019-05-29T07:08:47.908Z,16.70
2019-05-29T07:19:23.981Z,16.60
2019-05-29T07:29:07.977Z,16.60
2019-05-29T07:39:08.643Z,16.70
2019-05-29T07:49:14.037Z,16.60
2019-05-29T07:59:19.364Z,16.60
2019-05-29T08:09:24.787Z,16.60
2019-05-29T08:19:31.612Z,16.60
2019-05-29T08:29:37.019Z,16.60
2019-05-29T08:39:43.411Z,16.60
2019-05-29T08:49:51.567Z,16.60
2019-05-29T08:59:56.131Z,16.60
2019-05-29T09:10:01.490Z,16.60
2019-05-29T09:20:07.064Z,16.50
2019-05-29T09:30:14.981Z,16.50
2019-05-29T09:40:21.054Z,16.50
2019-05-29T09:50:27.823Z,16.50
2019-05-29T10:00:34.943Z,16.50
2019-05-29T10:10:40.324Z,16.50
2019-05-29T10:20:45.738Z,16.50
2019-05-29T10:30:52.794Z,16.50
2019-05-29T10:41:06.307Z,16.50
2019-05-29T10:51:05.484Z,16.50
2019-05-29T11:01:10.886Z,16.50
2019-05-29T11:11:16.236Z,16.50
2019-05-29T11:21:21.726Z,16.50
2019-05-29T11:31:27.052Z,16.50
2019-05-29T11:41:33.602Z,16.50
2019-05-29T11:51:39.054Z,16.50
2019-05-29T12:01:50.038Z,16.50
2019-05-29T12:11:51.914Z,16.50
2019-05-29T12:21:58.394Z,16.50
2019-05-29T12:32:08.369Z,16.50
2019-05-29T12:42:11.006Z,16.40
2019-05-29T12:52:16.419Z,16.40
2019-05-29T13:02:21.907Z,16.40
2019-05-29T13:12:27.367Z,16.40
2019-05-29T13:22:32.799Z,16.40
2019-05-29T13:32:40.446Z,16.40
2019-05-29T13:42:45.772Z,16.40
2019-05-29T13:52:51.152Z,16.40
2019-05-29T14:02:56.520Z,16.40
2019-05-29T14:13:02.961Z,16.40
2019-05-29T14:23:09.628Z,16.40
2019-05-29T14:33:15.487Z,16.40
2019-05-29T14:43:20.902Z,16.40
2019-05-29T14:53:26.265Z,16.40
2019-05-29T15:03:31.553Z,16.40
2019-05-29T15:13:37.009Z,16.40
2019-05-29T15:23:42.317Z,16.40
2019-05-29T15:33:47.729Z,16.40
2019-05-29T15:43:53.055Z,16.40
2019-05-29T15:53:58.490Z,16.40
2019-05-29T16:04:03.997Z,16.40
2019-05-29T16:14:10.518Z,16.40
2019-05-29T16:24:16.799Z,16.40
2019-05-29T16:34:23.023Z,16.40
2019-05-29T16:44:29.530Z,16.40
2019-05-29T16:54:35.129Z,16.40
2019-05-29T17:04:40.547Z,16.30
2019-05-29T17:14:46.040Z,16.40
2019-05-29T17:24:51.439Z,16.30
2019-05-29T17:34:56.806Z,16.30
2019-05-29T17:45:02.801Z,16.30
2019-05-29T17:55:08.514Z,16.30
2019-05-29T18:05:16.267Z,16.30
2019-05-29T18:15:21.975Z,16.30
2019-05-29T18:25:28.087Z,16.30
2019-05-29T18:35:33.695Z,16.30
2019-05-29T18:45:38.998Z,16.30
2019-05-29T18:55:44.486Z,16.30
2019-05-29T19:05:49.897Z,16.30
2019-05-29T19:15:55.252Z,16.30
2019-05-29T19:26:00.609Z,16.30
2019-05-29T19:36:06.242Z,16.30
2019-05-29T19:46:11.619Z,16.30
2019-05-29T19:56:17.097Z,16.30
2019-05-29T20:06:22.481Z,16.30
2019-05-29T20:16:30.208Z,16.20
2019-05-29T20:26:35.549Z,16.30
2019-05-29T20:36:42.103Z,16.20
2019-05-29T20:46:47.896Z,16.30
2019-05-29T20:56:53.217Z,16.20
2019-05-29T21:06:58.511Z,16.20
2019-05-29T21:17:04.178Z,16.20
2019-05-29T21:27:09.937Z,16.20
2019-05-29T21:37:15.327Z,16.20
2019-05-29T21:47:20.720Z,16.20
2019-05-29T21:57:27.115Z,16.20
2019-05-29T22:07:32.422Z,16.20
2019-05-29T22:17:38.435Z,16.20
2019-05-29T22:27:44.625Z,16.20
2019-05-29T22:37:51.432Z,16.20
2019-05-29T22:47:57.805Z,16.20
2019-05-29T22:58:03.228Z,16.10
2019-05-29T23:08:08.643Z,16.20
2019-05-29T23:18:14.143Z,16.20
2019-05-29T23:28:19.535Z,16.20
2019-05-29T23:38:24.976Z,16.10
2019-05-29T23:48:31.311Z,16.10
2019-05-29T23:58:36.659Z,16.10
